createdAt,value
2022-10-23T00:00:08.419Z,11.28
2022-10-23T00:01:07.490Z,11.21
2022-10-23T00:02:08.017Z,11.23
2022-10-23T00:03:07.719Z,11.15
2022-10-23T00:04:07.986Z,11.13
2022-10-23T00:05:07.998Z,11.15
2022-10-23T00:06:07.707Z,11.15
2022-10-23T00:07:07.679Z,11.16
2022-10-23T00:08:07.663Z,11.09
2022-10-23T00:09:07.399Z,11.09
2022-10-23T00:10:07.899Z,11.15
2022-10-23T00:11:07.634Z,11.13
2022-10-23T00:12:07.619Z,11.06
2022-10-23T00:13:07.611Z,11.05
2022-10-23T00:14:07.858Z,11.1
2022-10-23T00:15:07.845Z,11.1
2022-10-23T00:16:07.909Z,11.09
2022-10-23T00:17:07.824Z,11.23
2022-10-23T00:18:07.591Z,11.13
2022-10-23T00:19:07.987Z,11.21
2022-10-23T00:20:07.573Z,11.03
2022-10-23T00:21:07.548Z,11.03
2022-10-23T00:22:07.261Z,11.02
2022-10-23T00:23:07.757Z,11.08
2022-10-23T00:25:07.486Z,11.05
2022-10-23T00:26:07.464Z,11.09
2022-10-23T00:27:07.718Z,10.97
2022-10-23T00:28:07.445Z,10.98
2022-10-23T00:29:07.185Z,10.97
2022-10-23T00:30:07.436Z,11
2022-10-23T00:31:07.681Z,10.98
2022-10-23T00:32:07.404Z,10.98
2022-10-23T00:33:07.134Z,10.88
2022-10-23T00:34:07.660Z,10.97
2022-10-23T00:35:07.627Z,11.03
2022-10-23T00:36:07.636Z,10.95
2022-10-23T00:37:07.626Z,11.06
2022-10-23T00:38:07.074Z,11.05
2022-10-23T00:39:07.409Z,11.06
2022-10-23T00:40:07.054Z,10.98
2022-10-23T00:41:07.094Z,10.98
2022-10-23T00:42:07.544Z,11
2022-10-23T00:43:07.027Z,10.91
2022-10-23T00:44:07.528Z,10.98
2022-10-23T00:45:07.522Z,10.88
2022-10-23T00:46:07.498Z,10.85
2022-10-23T00:47:07.264Z,10.85
2022-10-23T00:48:07.474Z,10.84
2022-10-23T00:49:07.514Z,10.88
2022-10-23T00:50:07.237Z,10.84
2022-10-23T00:51:07.447Z,10.7
2022-10-23T00:52:07.453Z,10.7
2022-10-23T00:53:07.191Z,10.67
2022-10-23T00:54:28.118Z,10.65
2022-10-23T00:55:07.143Z,10.7
2022-10-23T00:56:07.387Z,10.63
2022-10-23T00:57:07.118Z,10.63
2022-10-23T00:58:06.848Z,10.65
2022-10-23T00:59:06.845Z,10.58
2022-10-23T01:00:07.090Z,10.67
2022-10-23T01:01:07.399Z,10.67
2022-10-23T01:02:07.769Z,10.73
2022-10-23T01:03:07.058Z,10.61
2022-10-23T01:04:07.291Z,10.59
2022-10-23T01:05:07.302Z,10.57
2022-10-23T01:06:07.078Z,10.58
2022-10-23T01:07:06.758Z,10.67
2022-10-23T01:08:07.022Z,10.65
2022-10-23T01:09:07.004Z,10.69
2022-10-23T01:10:07.255Z,10.69
2022-10-23T01:11:07.219Z,10.63
2022-10-23T01:12:07.207Z,10.59
2022-10-23T01:13:06.943Z,10.63
2022-10-23T01:14:08.214Z,10.52
2022-10-23T01:15:06.909Z,10.57
2022-10-23T01:16:06.644Z,10.57
2022-10-23T01:17:06.895Z,10.59
2022-10-23T01:18:06.874Z,10.58
2022-10-23T01:19:06.864Z,10.59
2022-10-23T01:20:07.107Z,10.55
2022-10-23T01:21:06.581Z,10.57
2022-10-23T01:22:06.863Z,10.61
2022-10-23T01:23:07.077Z,10.57
2022-10-23T01:24:06.828Z,10.52
2022-10-23T01:25:07.090Z,10.61
2022-10-23T01:26:07.048Z,10.54
2022-10-23T01:27:06.516Z,10.59
2022-10-23T01:28:07.018Z,10.57
2022-10-23T01:29:07.001Z,10.49
2022-10-23T01:30:06.740Z,10.47
2022-10-23T01:31:06.729Z,10.54
2022-10-23T01:32:06.463Z,10.41
2022-10-23T01:34:06.438Z,10.39
2022-10-23T01:35:06.691Z,10.38
2022-10-23T01:36:06.672Z,10.31
2022-10-23T01:37:06.653Z,10.36
2022-10-23T01:38:06.943Z,10.28
2022-10-23T01:39:06.417Z,10.2
2022-10-23T01:40:06.652Z,10.28
2022-10-23T01:41:06.628Z,10.23
2022-10-23T01:42:06.600Z,10.25
2022-10-23T01:43:06.605Z,10.26
2022-10-23T01:44:06.828Z,10.17
2022-10-23T01:45:06.316Z,10.15
2022-10-23T01:46:06.300Z,10.17
2022-10-23T01:47:06.796Z,10.18
2022-10-23T01:48:06.783Z,10.14
2022-10-23T01:49:06.517Z,10.11
2022-10-23T01:50:06.246Z,10.15
2022-10-23T01:51:06.234Z,10.02
2022-10-23T01:52:06.755Z,10.08
2022-10-23T01:53:06.736Z,9.95
2022-10-23T01:54:06.492Z,10.15
2022-10-23T01:55:06.203Z,10.07
2022-10-23T01:56:06.456Z,10.05
2022-10-23T01:57:06.444Z,10.05
2022-10-23T01:58:06.412Z,9.95
2022-10-23T01:59:06.647Z,9.93
2022-10-23T02:00:06.736Z,9.85
2022-10-23T02:01:06.606Z,9.85
2022-10-23T02:02:06.709Z,9.85
2022-10-23T02:03:06.606Z,9.77
2022-10-23T02:04:06.343Z,9.78
2022-10-23T02:05:06.579Z,9.77
2022-10-23T02:06:06.314Z,9.74
2022-10-23T02:07:06.301Z,9.75
2022-10-23T02:08:06.287Z,9.78
2022-10-23T02:09:06.532Z,9.85
2022-10-23T02:10:06.292Z,9.84
2022-10-23T02:11:06.003Z,9.84
2022-10-23T02:12:06.522Z,9.85
2022-10-23T02:13:06.292Z,9.88
2022-10-23T02:14:06.225Z,9.8
2022-10-23T02:15:06.468Z,9.89
2022-10-23T02:16:05.938Z,9.77
2022-10-23T02:17:05.923Z,9.88
2022-10-23T02:18:06.166Z,9.84
2022-10-23T02:19:06.706Z,9.8
2022-10-23T02:20:06.158Z,9.9
2022-10-23T02:21:06.390Z,9.75
2022-10-23T02:22:05.865Z,9.72
2022-10-23T02:23:05.887Z,9.78
2022-10-23T02:24:06.094Z,9.8
2022-10-23T02:25:05.831Z,9.78
2022-10-23T02:26:06.096Z,9.78
2022-10-23T02:27:06.060Z,9.88
2022-10-23T02:28:06.067Z,9.81
2022-10-23T02:30:06.282Z,9.77
2022-10-23T02:31:06.024Z,9.78
2022-10-23T02:32:06.261Z,9.77
2022-10-23T02:33:05.731Z,9.7
2022-10-23T02:34:06.225Z,9.74
2022-10-23T02:35:05.711Z,9.7
2022-10-23T02:36:05.950Z,9.7
2022-10-23T02:37:06.201Z,9.67
2022-10-23T02:38:05.923Z,9.67
2022-10-23T02:39:05.912Z,9.6
2022-10-23T02:40:05.899Z,9.6
2022-10-23T02:41:06.145Z,9.55
2022-10-23T02:42:05.899Z,9.52
2022-10-23T02:43:05.868Z,9.5
2022-10-23T02:44:05.924Z,9.47
2022-10-23T02:45:06.125Z,9.55
2022-10-23T02:46:05.577Z,9.5
2022-10-23T02:47:05.554Z,9.42
2022-10-23T02:48:05.799Z,9.47
2022-10-23T02:49:06.045Z,9.52
2022-10-23T02:50:06.034Z,9.53
2022-10-23T02:51:05.768Z,9.5
2022-10-23T02:52:06.006Z,9.47
2022-10-23T02:53:05.733Z,9.47
2022-10-23T02:54:06.011Z,9.45
2022-10-23T02:55:05.972Z,9.45
2022-10-23T02:56:05.704Z,9.38
2022-10-23T02:57:05.687Z,9.39
2022-10-23T02:58:05.706Z,9.42
2022-10-23T02:59:05.416Z,9.47
2022-10-23T03:00:05.937Z,9.5
2022-10-23T03:01:06.098Z,9.55
2022-10-23T03:02:06.426Z,9.48
2022-10-23T03:03:05.878Z,9.48
2022-10-23T03:04:05.868Z,9.52
2022-10-23T03:05:05.339Z,9.55
2022-10-23T03:06:05.580Z,9.47
2022-10-23T03:07:05.819Z,9.5
2022-10-23T03:08:05.551Z,9.53
2022-10-23T03:09:05.539Z,9.5
2022-10-23T03:10:05.800Z,9.53
2022-10-23T03:11:05.777Z,9.57
2022-10-23T03:12:05.246Z,9.52
2022-10-23T03:13:05.487Z,9.66
2022-10-23T03:14:05.514Z,9.62
2022-10-23T03:15:05.473Z,9.64
2022-10-23T03:16:05.736Z,9.6
2022-10-23T03:17:05.716Z,9.66
2022-10-23T03:18:05.177Z,9.56
2022-10-23T03:19:05.318Z,9.66
2022-10-23T03:20:05.416Z,9.64
2022-10-23T03:21:05.388Z,9.6
2022-10-23T03:22:05.121Z,9.64
2022-10-23T03:23:05.615Z,9.71
2022-10-23T03:24:05.354Z,9.59
2022-10-23T03:25:05.359Z,9.67
2022-10-23T03:26:05.328Z,9.56
2022-10-23T03:27:05.065Z,9.71
2022-10-23T03:28:05.313Z,9.7
2022-10-23T03:29:05.545Z,9.72
2022-10-23T03:30:05.300Z,9.74
2022-10-23T03:31:05.007Z,9.7
2022-10-23T03:32:05.279Z,9.74
2022-10-23T03:49:36.484Z,9.71
2022-10-23T03:50:35.879Z,9.67
2022-10-23T03:51:36.115Z,9.74
2022-10-23T03:52:36.119Z,9.66
2022-10-23T03:53:36.081Z,9.64
2022-10-23T03:54:36.074Z,9.63
2022-10-23T03:55:35.811Z,9.67
2022-10-23T03:56:36.044Z,9.75
2022-10-23T03:57:36.278Z,9.89
2022-10-23T03:58:36.008Z,9.98
2022-10-23T03:59:35.993Z,10.07
2022-10-23T04:00:37.003Z,10.05
2022-10-23T04:01:37.555Z,10.07
2022-10-23T04:02:37.256Z,9.99
2022-10-23T04:03:36.993Z,9.95
2022-10-23T04:04:36.811Z,9.98
2022-10-23T04:05:37.033Z,9.95
2022-10-23T04:06:36.871Z,9.88
2022-10-23T04:07:36.933Z,9.92
2022-10-23T04:08:36.663Z,9.92
2022-10-23T04:09:36.656Z,9.95
2022-10-23T04:10:36.890Z,9.99
2022-10-23T04:11:36.621Z,10.02
2022-10-23T04:12:36.620Z,9.92
2022-10-23T04:13:36.596Z,9.99
2022-10-23T04:14:36.586Z,9.88
2022-10-23T04:15:36.827Z,9.72
2022-10-23T04:16:36.810Z,9.7
2022-10-23T04:17:36.814Z,9.7
2022-10-23T04:18:36.547Z,9.62
2022-10-23T04:19:36.265Z,9.67
2022-10-23T04:20:36.505Z,9.6
2022-10-23T04:21:36.834Z,9.55
2022-10-23T04:22:37.008Z,9.48
2022-10-23T04:23:36.993Z,9.53
2022-10-23T04:24:37.235Z,9.48
2022-10-23T04:25:37.333Z,9.55
2022-10-23T04:26:36.954Z,9.5
2022-10-23T04:27:36.685Z,9.47
2022-10-23T04:28:37.180Z,9.41
2022-10-23T04:29:36.923Z,9.44
2022-10-23T04:30:37.158Z,9.47
2022-10-23T04:31:37.150Z,9.3
2022-10-23T04:32:37.128Z,9.26
2022-10-23T04:33:36.865Z,9.35
2022-10-23T04:34:36.849Z,9.37
2022-10-23T04:35:36.587Z,9.52
2022-10-23T04:36:36.566Z,9.45
2022-10-23T04:37:37.214Z,9.55
2022-10-23T04:38:37.062Z,9.55
2022-10-23T04:39:36.788Z,9.55
2022-10-23T04:40:36.523Z,9.5
2022-10-23T04:41:37.015Z,9.48
2022-10-23T04:42:36.751Z,9.47
2022-10-23T04:43:36.481Z,9.53
2022-10-23T04:44:36.722Z,9.48
2022-10-23T04:45:36.710Z,9.57
2022-10-23T04:46:36.702Z,9.57
2022-10-23T04:47:36.687Z,9.53
2022-10-23T04:48:36.419Z,9.47
2022-10-23T04:49:36.658Z,9.48
2022-10-23T04:50:36.743Z,9.57
2022-10-23T04:51:36.380Z,9.64
2022-10-23T04:52:36.894Z,9.6
2022-10-23T04:53:36.947Z,9.64
2022-10-23T04:54:36.855Z,9.63
2022-10-23T04:55:36.837Z,9.7
2022-10-23T04:56:36.325Z,9.6
2022-10-23T04:57:36.566Z,9.71
2022-10-23T04:58:36.296Z,9.71
2022-10-23T04:59:36.535Z,9.66
2022-10-23T05:00:36.764Z,9.66
2022-10-23T05:01:36.987Z,9.67
2022-10-23T05:02:36.494Z,9.6
2022-10-23T05:03:36.236Z,9.6
2022-10-23T05:04:36.474Z,9.62
2022-10-23T05:05:36.461Z,9.57
2022-10-23T05:06:36.447Z,9.57
2022-10-23T05:07:36.434Z,9.52
2022-10-23T05:08:36.675Z,9.45
2022-10-23T05:09:36.740Z,9.57
2022-10-23T05:10:36.400Z,9.57
2022-10-23T05:11:36.125Z,9.5
2022-10-23T05:12:36.635Z,9.53
2022-10-23T05:13:36.356Z,9.63
2022-10-23T05:14:36.344Z,9.64
2022-10-23T05:15:36.525Z,9.7
2022-10-23T05:16:36.315Z,9.64
2022-10-23T05:17:36.312Z,9.7
2022-10-23T05:18:36.045Z,9.66
2022-10-23T05:19:36.284Z,9.71
2022-10-23T05:20:36.015Z,9.71
2022-10-23T05:21:36.259Z,9.78
2022-10-23T05:22:36.248Z,9.74
2022-10-23T05:23:36.493Z,9.78
2022-10-23T05:24:36.228Z,9.85
2022-10-23T05:25:36.530Z,9.74
2022-10-23T05:26:36.208Z,9.78
2022-10-23T05:27:36.183Z,9.77
2022-10-23T05:28:35.915Z,9.85
2022-10-23T05:29:36.707Z,9.8
2022-10-23T05:30:37.490Z,9.74
2022-10-23T05:31:37.462Z,9.77
2022-10-23T05:32:37.718Z,9.77
2022-10-23T05:33:37.444Z,9.8
2022-10-23T05:34:37.171Z,9.75
2022-10-23T05:35:37.161Z,9.77
2022-10-23T05:36:37.659Z,9.72
2022-10-23T05:37:37.647Z,9.7
2022-10-23T05:38:37.635Z,9.71
2022-10-23T05:39:37.628Z,9.72
2022-10-23T05:41:37.676Z,9.72
2022-10-23T05:42:41.516Z,9.75
2022-10-23T05:43:37.572Z,9.7
2022-10-23T05:44:37.299Z,9.7
2022-10-23T05:45:37.035Z,9.67
2022-10-23T05:46:37.272Z,9.74
2022-10-23T05:47:37.267Z,9.77
2022-10-23T05:48:40.017Z,9.81
2022-10-23T05:49:37.243Z,9.8
2022-10-23T05:50:37.476Z,9.84
2022-10-23T05:51:37.215Z,9.88
2022-10-23T05:52:36.941Z,9.93
2022-10-23T05:53:40.399Z,9.93
2022-10-23T05:54:37.429Z,10.02
2022-10-23T05:55:37.162Z,10.05
2022-10-23T05:56:36.898Z,10.11
2022-10-23T05:57:37.494Z,10.05
2022-10-23T05:58:37.378Z,9.98
2022-10-23T05:59:37.370Z,10.11
2022-10-23T06:00:36.843Z,10.05
2022-10-23T06:01:37.911Z,10.1
2022-10-23T06:02:37.542Z,10.15
2022-10-23T06:03:37.325Z,10.14
2022-10-23T06:04:37.310Z,10.17
2022-10-23T06:05:37.232Z,10.14
2022-10-23T06:06:36.772Z,10.23
2022-10-23T06:07:40.564Z,10.25
2022-10-23T06:08:37.275Z,10.32
2022-10-23T06:09:36.989Z,10.21
2022-10-23T06:10:37.234Z,10.31
2022-10-23T06:11:37.006Z,10.31
2022-10-23T06:12:36.961Z,10.35
2022-10-23T06:13:37.285Z,10.31
2022-10-23T06:14:36.934Z,10.33
2022-10-23T06:15:36.916Z,10.36
2022-10-23T06:16:37.167Z,10.39
2022-10-23T06:17:37.151Z,10.44
2022-10-23T06:18:36.883Z,10.47
2022-10-23T06:19:37.126Z,10.41
2022-10-23T06:20:36.852Z,10.44
2022-10-23T06:21:37.103Z,10.49
2022-10-23T06:22:36.840Z,10.51
2022-10-23T06:23:36.820Z,10.51
2022-10-23T06:24:36.560Z,10.49
2022-10-23T06:25:36.792Z,10.49
2022-10-23T06:26:36.527Z,10.55
2022-10-23T06:27:37.023Z,10.66
2022-10-23T06:28:36.762Z,10.69
2022-10-23T06:29:37.074Z,10.69
2022-10-23T06:31:36.988Z,10.69
2022-10-23T06:32:36.719Z,10.67
2022-10-23T06:33:36.698Z,10.72
2022-10-23T06:34:36.686Z,10.67
2022-10-23T06:35:36.672Z,10.7
2022-10-23T06:36:36.663Z,10.7
2022-10-23T06:37:36.394Z,10.73
2022-10-23T06:38:36.658Z,10.84
2022-10-23T06:39:36.773Z,10.85
2022-10-23T06:40:36.632Z,10.84
2022-10-23T06:41:36.600Z,10.9
2022-10-23T06:42:36.858Z,10.91
2022-10-23T06:43:36.319Z,10.92
2022-10-23T06:44:36.568Z,10.94
2022-10-23T06:45:36.887Z,10.97
2022-10-23T06:46:36.801Z,11
2022-10-23T06:47:36.530Z,11.05
2022-10-23T06:48:36.780Z,11.06
2022-10-23T06:49:36.510Z,11.05
2022-10-23T06:50:36.621Z,11.09
2022-10-23T06:51:36.746Z,11.06
2022-10-23T06:52:51.437Z,11.13
2022-10-23T06:53:36.463Z,11.13
2022-10-23T06:54:36.707Z,11.13
2022-10-23T06:56:36.171Z,11.12
2022-10-23T06:57:36.162Z,11.21
2022-10-23T06:58:36.405Z,11.3
2022-10-23T06:59:36.136Z,11.27
2022-10-23T07:00:36.509Z,11.34
2022-10-23T07:01:37.379Z,11.34
2022-10-23T07:02:36.614Z,11.38
2022-10-23T07:03:36.346Z,11.38
2022-10-23T07:04:36.598Z,11.34
2022-10-23T07:05:36.072Z,11.41
2022-10-23T07:06:36.311Z,11.46
2022-10-23T07:07:36.042Z,11.49
2022-10-23T07:08:36.542Z,11.51
2022-10-23T07:09:36.280Z,11.51
2022-10-23T07:10:36.271Z,11.67
2022-10-23T07:11:36.263Z,11.67
2022-10-23T07:12:35.989Z,11.66
2022-10-23T07:13:35.978Z,11.79
2022-10-23T07:14:35.965Z,11.81
2022-10-23T07:15:36.468Z,11.91
2022-10-23T07:16:36.454Z,11.91
2022-10-23T07:17:36.516Z,11.98
2022-10-23T07:18:36.991Z,12.04
2022-10-23T07:19:36.166Z,12.08
2022-10-23T07:20:36.420Z,12.04
2022-10-23T07:21:36.399Z,12.07
2022-10-23T07:22:36.388Z,12.11
2022-10-23T07:23:36.380Z,12.16
2022-10-23T07:24:36.108Z,12.28
2022-10-23T07:25:36.101Z,12.29
2022-10-23T07:26:36.355Z,12.28
2022-10-23T07:27:36.092Z,12.44
2022-10-23T07:28:36.065Z,12.53
2022-10-23T07:29:35.802Z,12.59
2022-10-23T07:30:36.297Z,12.65
2022-10-23T07:31:35.783Z,12.76
2022-10-23T07:32:36.285Z,12.8
2022-10-23T07:33:36.342Z,12.92
2022-10-23T07:34:35.749Z,13.01
2022-10-23T07:35:41.696Z,13.03
2022-10-23T07:36:36.243Z,13.13
2022-10-23T07:37:36.230Z,13.11
2022-10-23T07:38:36.218Z,13.25
2022-10-23T07:39:35.696Z,13.16
2022-10-23T07:40:35.951Z,13.21
2022-10-23T07:41:36.189Z,13.21
2022-10-23T07:42:35.665Z,13.2
2022-10-23T07:43:36.673Z,13.27
2022-10-23T07:44:35.908Z,13.32
2022-10-23T07:45:35.646Z,13.42
2022-10-23T07:46:35.883Z,13.42
2022-10-23T07:47:35.878Z,13.44
2022-10-23T07:48:35.606Z,13.45
2022-10-23T07:49:36.187Z,13.47
2022-10-23T07:50:36.105Z,13.63
2022-10-23T07:51:36.093Z,13.48
2022-10-23T07:52:40.395Z,13.58
2022-10-23T07:53:36.086Z,13.53
2022-10-23T07:54:36.073Z,13.57
2022-10-23T07:55:35.796Z,13.58
2022-10-23T07:56:35.800Z,13.69
2022-10-23T07:57:36.029Z,13.7
2022-10-23T07:58:35.766Z,13.69
2022-10-23T07:59:41.734Z,13.68
2022-10-23T08:00:36.011Z,13.69
2022-10-23T08:01:36.283Z,13.68
2022-10-23T08:02:36.111Z,13.72
2022-10-23T08:03:35.462Z,13.66
2022-10-23T08:04:35.972Z,13.68
2022-10-23T08:05:36.034Z,13.7
2022-10-23T08:06:35.700Z,13.72
2022-10-23T08:07:35.693Z,13.75
2022-10-23T08:08:35.829Z,13.7
2022-10-23T08:09:35.407Z,13.69
2022-10-23T08:10:36.108Z,13.63
2022-10-23T08:11:36.097Z,13.72
2022-10-23T08:12:36.107Z,13.76
2022-10-23T08:13:35.827Z,13.76
2022-10-23T08:14:35.819Z,13.84
2022-10-23T08:15:35.807Z,13.86
2022-10-23T08:16:36.056Z,13.94
2022-10-23T08:17:36.045Z,13.95
2022-10-23T08:18:35.780Z,14.05
2022-10-23T08:19:35.769Z,14.09
2022-10-23T08:20:35.764Z,14.12
2022-10-23T08:21:36.084Z,14.08
2022-10-23T08:22:35.755Z,14.08
2022-10-23T08:23:35.733Z,14.16
2022-10-23T08:24:35.723Z,14.2
2022-10-23T08:25:35.809Z,14.09
2022-10-23T08:26:35.975Z,14.2
2022-10-23T08:27:35.444Z,14.27
2022-10-23T08:28:35.707Z,14.26
2022-10-23T08:29:35.681Z,14.24
2022-10-23T08:30:35.675Z,14.28
2022-10-23T08:31:35.669Z,14.24
2022-10-23T08:32:35.399Z,14.27
2022-10-23T08:33:35.450Z,14.31
2022-10-23T08:34:35.899Z,14.26
2022-10-23T08:35:35.885Z,14.33
2022-10-23T08:36:35.620Z,14.41
2022-10-23T08:37:35.940Z,14.3
2022-10-23T08:38:35.372Z,14.45
2022-10-23T08:39:35.854Z,14.39
2022-10-23T08:40:35.329Z,14.46
2022-10-23T08:41:35.585Z,14.48
2022-10-23T08:42:35.567Z,14.52
2022-10-23T08:43:35.577Z,14.48
2022-10-23T08:44:35.554Z,14.46
2022-10-23T08:45:35.307Z,14.53
2022-10-23T08:46:35.533Z,14.48
2022-10-23T08:47:35.521Z,14.61
2022-10-23T08:48:35.516Z,14.67
2022-10-23T08:49:35.513Z,14.86
2022-10-23T08:50:35.814Z,14.9
2022-10-23T08:51:35.747Z,15.01
2022-10-23T08:52:35.740Z,15.08
2022-10-23T08:53:35.834Z,15.13
2022-10-23T08:54:35.466Z,15.23
2022-10-23T08:55:35.718Z,15.31
2022-10-23T08:56:35.463Z,15.38
2022-10-23T08:57:37.760Z,15.51
2022-10-23T08:58:35.440Z,15.52
2022-10-23T08:59:35.766Z,15.6
2022-10-23T09:00:35.161Z,15.67
2022-10-23T09:01:35.984Z,15.67
2022-10-23T09:02:35.147Z,15.65
2022-10-23T09:03:35.665Z,15.74
2022-10-23T09:04:35.391Z,15.68
2022-10-23T09:05:35.634Z,15.77
2022-10-23T09:06:35.373Z,15.74
2022-10-23T09:07:35.627Z,15.73
2022-10-23T09:08:35.352Z,15.75
2022-10-23T09:09:35.682Z,15.89
2022-10-23T09:10:35.338Z,15.83
2022-10-23T09:11:35.337Z,15.77
2022-10-23T09:12:35.327Z,15.75
2022-10-23T09:13:35.315Z,15.88
2022-10-23T09:14:35.054Z,15.84
2022-10-23T09:15:35.558Z,15.8
2022-10-23T09:16:35.040Z,15.77
2022-10-23T09:17:35.047Z,15.74
2022-10-23T09:18:35.281Z,15.89
2022-10-23T09:19:35.274Z,15.91
2022-10-23T09:20:35.533Z,15.77
2022-10-23T09:21:35.516Z,15.77
2022-10-23T09:22:35.520Z,15.77
2022-10-23T09:23:35.244Z,15.77
2022-10-23T09:24:35.494Z,15.73
2022-10-23T09:25:35.561Z,15.68
2022-10-23T09:26:35.476Z,15.73
2022-10-23T09:27:35.469Z,15.71
2022-10-23T09:28:35.207Z,15.6
2022-10-23T09:29:35.498Z,15.7
2022-10-23T09:30:34.934Z,15.73
2022-10-23T09:31:35.184Z,15.68
2022-10-23T09:32:35.436Z,15.78
2022-10-23T09:33:34.910Z,15.74
2022-10-23T09:34:35.415Z,15.75
2022-10-23T09:35:35.161Z,15.7
2022-10-23T09:36:35.147Z,15.74
2022-10-23T09:37:35.139Z,15.74
2022-10-23T09:38:35.389Z,15.89
2022-10-23T09:39:35.386Z,15.91
2022-10-23T09:40:35.115Z,15.93
2022-10-23T09:41:35.445Z,15.89
2022-10-23T09:42:35.097Z,15.83
2022-10-23T09:43:35.100Z,15.95
2022-10-23T09:44:35.339Z,15.88
2022-10-23T09:45:35.087Z,15.95
2022-10-23T09:46:35.071Z,15.98
2022-10-23T09:47:35.069Z,16.08
2022-10-23T09:48:35.315Z,16.02
2022-10-23T09:49:35.317Z,16.1
2022-10-23T09:50:35.046Z,16.06
2022-10-23T09:51:35.033Z,16.11
2022-10-23T09:52:35.278Z,16.16
2022-10-23T09:53:35.019Z,16.16
2022-10-23T09:54:35.269Z,16.25
2022-10-23T09:55:35.003Z,16.29
2022-10-23T09:56:35.328Z,16.25
2022-10-23T09:57:35.325Z,16.29
2022-10-23T09:58:34.742Z,16.37
2022-10-23T09:59:34.979Z,16.3
2022-10-23T10:00:34.725Z,16.32
2022-10-23T10:01:35.541Z,16.32
2022-10-23T10:02:34.956Z,16.32
2022-10-23T10:03:35.205Z,16.34
2022-10-23T10:04:34.944Z,16.3
2022-10-23T10:05:34.939Z,16.3
2022-10-23T10:06:35.628Z,16.4
2022-10-23T10:07:39.363Z,16.37
2022-10-23T10:08:35.198Z,16.29
2022-10-23T10:09:34.904Z,16.3
2022-10-23T10:10:34.896Z,16.4
2022-10-23T10:11:34.900Z,16.47
2022-10-23T10:12:35.143Z,16.51
2022-10-23T10:13:35.212Z,16.57
2022-10-23T10:14:34.875Z,16.48
2022-10-23T10:15:34.867Z,16.52
2022-10-23T10:16:35.015Z,16.57
2022-10-23T10:17:34.857Z,16.67
2022-10-23T10:18:34.848Z,16.76
2022-10-23T10:19:34.586Z,16.84
2022-10-23T10:20:35.086Z,16.95
2022-10-23T10:21:35.099Z,17.1
2022-10-23T10:22:34.563Z,17.09
2022-10-23T10:23:35.069Z,17.09
2022-10-23T10:24:34.808Z,17.17
2022-10-23T10:25:35.053Z,17.2
2022-10-23T10:26:34.556Z,17.25
2022-10-23T10:27:34.793Z,17.28
2022-10-23T10:28:34.782Z,17.27
2022-10-23T10:29:35.105Z,17.3
2022-10-23T10:30:35.028Z,17.4
2022-10-23T10:31:34.767Z,17.31
2022-10-23T10:32:34.761Z,17.35
2022-10-23T10:33:34.750Z,17.3
2022-10-23T10:34:35.012Z,17.22
2022-10-23T10:35:34.990Z,17.27
2022-10-23T10:36:34.995Z,17.27
2022-10-23T10:37:34.733Z,17.28
2022-10-23T10:38:34.466Z,17.27
2022-10-23T10:39:34.985Z,17.22
2022-10-23T10:40:34.963Z,17.38
2022-10-23T10:41:34.716Z,17.31
2022-10-23T10:42:34.968Z,17.42
2022-10-23T10:43:34.705Z,17.21
2022-10-23T10:44:34.954Z,17.2
2022-10-23T10:45:35.019Z,17.22
2022-10-23T10:46:34.690Z,17.39
2022-10-23T10:47:34.684Z,17.39
2022-10-23T10:48:34.934Z,17.45
2022-10-23T10:49:34.664Z,17.49
2022-10-23T10:50:34.915Z,17.6
2022-10-23T10:51:34.919Z,17.49
2022-10-23T10:52:34.904Z,17.57
2022-10-23T10:53:34.391Z,17.57
2022-10-23T10:54:34.637Z,17.55
2022-10-23T10:55:34.886Z,17.63
2022-10-23T10:56:34.622Z,17.69
2022-10-23T10:57:34.631Z,17.74
2022-10-23T10:58:34.358Z,17.83
2022-10-23T10:59:34.862Z,17.9
2022-10-23T11:00:34.602Z,17.99
2022-10-23T11:01:35.398Z,17.99
2022-10-23T11:02:34.848Z,18.03
2022-10-23T11:03:40.334Z,17.92
2022-10-23T11:04:34.322Z,17.98
2022-10-23T11:05:34.576Z,17.99
2022-10-23T11:06:34.716Z,17.98
2022-10-23T11:07:34.565Z,17.96
2022-10-23T11:08:56.052Z,18.02
2022-10-23T11:09:34.805Z,18.11
2022-10-23T11:10:34.284Z,18.14
2022-10-23T11:11:34.541Z,18.21
2022-10-23T11:12:34.529Z,18.31
2022-10-23T11:13:34.530Z,18.29
2022-10-23T11:14:34.722Z,18.32
2022-10-23T11:15:34.773Z,18.39
2022-10-23T11:16:34.512Z,18.5
2022-10-23T11:17:34.838Z,18.49
2022-10-23T11:18:34.754Z,18.53
2022-10-23T11:19:34.497Z,18.65
2022-10-23T11:20:34.741Z,18.61
2022-10-23T11:21:34.493Z,18.76
2022-10-23T11:22:34.481Z,18.81
2022-10-23T11:23:34.729Z,18.89
2022-10-23T11:24:34.463Z,18.9
2022-10-23T11:25:34.464Z,19.02
2022-10-23T11:26:34.717Z,19.05
2022-10-23T11:27:34.194Z,19.16
2022-10-23T11:28:34.444Z,19.19
2022-10-23T11:29:34.443Z,19.28
2022-10-23T11:30:34.694Z,19.31
2022-10-23T11:31:34.466Z,19.37
2022-10-23T11:32:34.538Z,19.3
2022-10-23T11:33:34.759Z,19.3
2022-10-23T11:34:34.677Z,19.2
2022-10-23T11:35:34.411Z,19.3
2022-10-23T11:36:34.411Z,19.32
2022-10-23T11:37:34.655Z,19.42
2022-10-23T11:38:34.665Z,19.46
2022-10-23T11:39:34.666Z,19.43
2022-10-23T11:40:34.387Z,19.6
2022-10-23T11:41:34.378Z,19.55
2022-10-23T11:42:34.377Z,19.56
2022-10-23T11:43:34.642Z,19.53
2022-10-23T11:44:34.626Z,19.55
2022-10-23T11:45:34.619Z,19.57
2022-10-23T11:46:34.620Z,19.57
2022-10-23T11:47:40.751Z,19.6
2022-10-23T11:48:34.605Z,19.49
2022-10-23T11:49:34.675Z,19.42
2022-10-23T11:50:34.346Z,19.43
2022-10-23T11:51:34.592Z,19.42
2022-10-23T11:52:36.143Z,19.42
2022-10-23T11:53:34.341Z,19.4
2022-10-23T11:54:34.324Z,19.35
2022-10-23T11:55:34.574Z,19.34
2022-10-23T11:56:34.571Z,19.3
2022-10-23T11:57:35.347Z,19.3
2022-10-23T11:58:34.589Z,19.28
2022-10-23T11:59:34.562Z,19.28
2022-10-23T12:00:34.553Z,19.27
2022-10-23T12:01:34.577Z,19.32
2022-10-23T12:02:34.768Z,19.31
2022-10-23T12:03:34.300Z,19.46
2022-10-23T12:04:34.287Z,19.45
2022-10-23T12:05:34.619Z,19.46
2022-10-23T12:06:34.527Z,19.53
2022-10-23T12:07:34.523Z,19.47
2022-10-23T12:08:34.269Z,19.46
2022-10-23T12:09:34.510Z,19.53
2022-10-23T12:10:34.278Z,19.47
2022-10-23T12:11:34.247Z,19.38
2022-10-23T12:12:34.251Z,19.42
2022-10-23T12:13:34.243Z,19.53
2022-10-23T12:14:34.495Z,19.43
2022-10-23T12:15:34.496Z,19.4
2022-10-23T12:16:34.228Z,19.45
2022-10-23T12:17:34.479Z,19.34
2022-10-23T12:18:34.221Z,19.32
2022-10-23T12:19:34.233Z,19.31
2022-10-23T12:20:34.209Z,19.17
2022-10-23T12:21:34.542Z,19.27
2022-10-23T12:23:34.197Z,19.2
2022-10-23T12:24:34.201Z,19.23
2022-10-23T12:25:34.450Z,19.31
2022-10-23T12:26:34.182Z,19.23
2022-10-23T12:27:34.189Z,19.28
2022-10-23T12:28:34.175Z,19.32
2022-10-23T12:29:34.186Z,19.24
2022-10-23T12:30:34.174Z,19.19
2022-10-23T12:31:34.174Z,19.15
2022-10-23T12:32:34.155Z,19.13
2022-10-23T12:33:34.158Z,19.16
2022-10-23T12:34:34.403Z,19.23
2022-10-23T12:35:34.148Z,19.3
2022-10-23T12:36:34.143Z,19.16
2022-10-23T12:37:34.470Z,19.2
2022-10-23T12:38:39.924Z,19.16
2022-10-23T12:39:34.449Z,19.12
2022-10-23T12:40:33.868Z,19.17
2022-10-23T12:41:33.862Z,19.25
2022-10-23T12:42:34.368Z,19.23
2022-10-23T12:43:34.373Z,19.27
2022-10-23T12:44:34.359Z,19.24
2022-10-23T12:45:34.102Z,19.23
2022-10-23T12:46:34.109Z,19.23
2022-10-23T12:47:34.530Z,19.28
2022-10-23T12:48:34.346Z,19.27
2022-10-23T12:49:34.346Z,19.28
2022-10-23T12:50:34.346Z,19.24
2022-10-23T12:51:34.335Z,19.31
2022-10-23T12:52:34.328Z,19.2
2022-10-23T12:53:34.423Z,19.28
2022-10-23T12:54:34.321Z,19.16
2022-10-23T12:55:38.548Z,19.16
2022-10-23T12:56:37.907Z,19.13
2022-10-23T12:57:34.062Z,19.2
2022-10-23T12:58:34.299Z,19.13
2022-10-23T12:59:34.306Z,19.13
2022-10-23T13:00:34.300Z,19.15
2022-10-23T13:01:34.450Z,19.06
2022-10-23T13:02:34.323Z,19.13
2022-10-23T13:03:34.023Z,19.1
2022-10-23T13:04:34.014Z,19.05
2022-10-23T13:05:34.014Z,19.05
2022-10-23T13:06:34.261Z,19
2022-10-23T13:07:34.011Z,19.02
2022-10-23T13:08:34.260Z,18.94
2022-10-23T13:09:34.322Z,18.81
2022-10-23T13:10:34.003Z,18.78
2022-10-23T13:11:33.980Z,18.78
2022-10-23T13:12:33.878Z,18.71
2022-10-23T13:13:34.260Z,18.66
2022-10-23T13:14:34.222Z,18.65
2022-10-23T13:15:33.959Z,18.61
2022-10-23T13:16:33.701Z,18.63
2022-10-23T13:17:33.953Z,18.54
2022-10-23T13:18:34.206Z,18.56
2022-10-23T13:19:33.962Z,18.47
2022-10-23T13:20:34.196Z,18.47
2022-10-23T13:21:33.937Z,18.42
2022-10-23T13:22:33.930Z,18.36
2022-10-23T13:23:33.922Z,18.35
2022-10-23T13:24:33.934Z,18.32
2022-10-23T13:25:34.250Z,18.29
2022-10-23T13:26:33.659Z,18.26